Time;durP1;ratioP1;P1;durP2;ratioP2;P2;SDS_P1;SDS_P2;PMS_P1;PMS_P2;Temp;Humidity;BMP_temperature;BMP_pressure;BME280_temperature;BME280_humidity;BME280_pressure;Samples;Min_cycle;Max_cycle;Signal;HPM_P1;HPM_P2
2021/01/11 00:02:14;;;;;;;;;;;-1.50;83.40;;;;;;5048230;28;20368;-68
2021/01/11 00:04:39;;;;;;;;;;;-1.60;83.80;;;;;;5048868;28;19909;-67
2021/01/11 00:07:07;;;;;;;;;;;-1.60;84.10;;;;;;5048865;28;19999;-67
2021/01/11 00:09:33;;;;;;;;;;;-1.70;84.30;;;;;;5048525;28;19965;-67
2021/01/11 00:11:58;;;;;;;;;;;-1.70;84.80;;;;;;5048325;28;19912;-67
2021/01/11 00:14:24;;;;;;;;;;;-1.70;84.60;;;;;;5048022;28;20022;-67
2021/01/11 00:16:51;;;;;;;;;;;-1.60;83.30;;;;;;5048475;28;20046;-65
2021/01/11 00:19:16;;;;;;;;;;;-1.60;83.10;;;;;;5048205;28;20402;-66
2021/01/11 00:21:45;;;;;;;;;;;-1.50;83.10;;;;;;5048343;28;20034;-64
2021/01/11 00:24:10;;;;;;;;;;;-1.60;83.50;;;;;;5048502;28;19935;-65
2021/01/11 00:26:36;;;;;;;;;;;-1.60;83.50;;;;;;5048191;28;20782;-65
2021/01/11 00:29:01;;;;;;;;;;;-1.70;84.40;;;;;;5047910;28;19909;-64
2021/01/11 00:31:27;;;;;;;;;;;-1.80;84.70;;;;;;5047907;28;19908;-66
2021/01/11 00:33:52;;;;;;;;;;;-1.80;84.50;;;;;;5048096;28;20304;-65
2021/01/11 00:36:18;;;;;;;;;;;-1.80;84.60;;;;;;5047790;28;19912;-65
2021/01/11 00:38:43;;;;;;;;;;;-1.80;84.70;;;;;;5047621;28;20265;-67
2021/01/11 00:41:15;;;;;;;;;;;-1.90;85.10;;;;;;5046124;28;20396;-67
2021/01/11 00:43:40;;;;;;;;;;;-1.90;85.20;;;;;;5047757;28;20339;-67
2021/01/11 00:46:06;;;;;;;;;;;-1.90;85.00;;;;;;5047733;28;19991;-67
2021/01/11 00:48:31;;;;;;;;;;;-1.90;85.00;;;;;;5047740;28;19916;-66
2021/01/11 00:50:57;;;;;;;;;;;-2.00;85.10;;;;;;5047895;28;20296;-66
2021/01/11 00:53:22;;;;;;;;;;;-2.00;84.80;;;;;;5047625;28;19993;-66
2021/01/11 00:55:48;;;;;;;;;;;-2.00;85.00;;;;;;5047757;28;19913;-65
2021/01/11 00:58:13;;;;;;;;;;;-2.00;85.10;;;;;;5047616;28;19916;-66
2021/01/11 01:00:39;;;;;;;;;;;-2.00;85.20;;;;;;5047215;28;20487;-67
2021/01/11 01:03:04;;;;;;;;;;;-2.10;86.20;;;;;;5048099;28;19908;-67
2021/01/11 01:05:30;;;;;;;;;;;-2.10;86.40;;;;;;5047243;28;19916;-66
2021/01/11 01:07:55;;;;;;;;;;;-2.20;85.90;;;;;;5047805;28;19917;-66
2021/01/11 01:10:21;;;;;;;;;;;-2.20;85.90;;;;;;5047152;28;20290;-67
2021/01/11 01:12:46;;;;;;;;;;;-2.20;85.70;;;;;;5047101;28;20525;-66
2021/01/11 01:15:12;;;;;;;;;;;-2.10;85.40;;;;;;5046946;28;19959;-67
2021/01/11 01:17:38;;;;;;;;;;;-2.10;85.40;;;;;;5046948;28;19954;-67
2021/01/11 01:20:04;;;;;;;;;;;-2.10;85.50;;;;;;5046771;28;19909;-67
2021/01/11 01:22:30;;;;;;;;;;;-2.10;85.40;;;;;;5047446;28;19972;-66
2021/01/11 01:24:55;;;;;;;;;;;-2.10;84.90;;;;;;5045924;28;20377;-67
2021/01/11 01:27:21;;;;;;;;;;;-2.00;84.40;;;;;;5046762;28;19912;-67
2021/01/11 01:29:46;;;;;;;;;;;-2.00;84.20;;;;;;5046371;28;19908;-66
2021/01/11 01:32:12;;;;;;;;;;;-2.10;83.90;;;;;;5047091;28;20451;-67
2021/01/11 01:34:37;;;;;;;;;;;-2.10;84.10;;;;;;5046809;28;19962;-66
2021/01/11 01:37:03;;;;;;;;;;;-2.20;84.50;;;;;;5047016;28;19970;-67
2021/01/11 01:39:28;;;;;;;;;;;-2.20;84.80;;;;;;5046682;28;19956;-67
2021/01/11 01:41:54;;;;;;;;;;;-2.20;84.70;;;;;;5045768;28;19913;-68
2021/01/11 01:44:19;;;;;;;;;;;-2.20;84.50;;;;;;5046599;28;19970;-67
2021/01/11 01:46:45;;;;;;;;;;;-2.20;84.30;;;;;;5047297;28;19948;-67
2021/01/11 01:49:10;;;;;;;;;;;-2.20;84.20;;;;;;5047069;28;19940;-67
2021/01/11 01:51:38;;;;;;;;;;;-2.10;84.10;;;;;;5046758;28;20026;-67
2021/01/11 01:54:03;;;;;;;;;;;-2.10;84.10;;;;;;5046839;28;19909;-67
2021/01/11 01:56:29;;;;;;;;;;;-2.20;84.10;;;;;;5047117;28;19917;-67
2021/01/11 01:58:55;;;;;;;;;;;-2.20;84.20;;;;;;5046342;28;20003;-65
2021/01/11 02:01:21;;;;;;;;;;;-2.20;84.50;;;;;;5046641;28;20007;-67
2021/01/11 02:03:48;;;;;;;;;;;-2.30;84.70;;;;;;5046299;28;20007;-65
2021/01/11 02:06:14;;;;;;;;;;;-2.40;85.50;;;;;;5046733;28;19905;-67
2021/01/11 02:08:42;;;;;;;;;;;-2.50;85.80;;;;;;5046307;28;19958;-67
2021/01/11 02:11:08;;;;;;;;;;;-2.50;86.50;;;;;;5046609;28;19958;-66
2021/01/11 02:13:55;;;;;;;;;;;-2.50;85.80;;;;;;5044391;28;19916;-67
2021/01/11 02:16:33;;;;;;;;;;;-2.50;86.00;;;;;;5046014;28;19924;-67
2021/01/11 02:19:04;;;;;;;;;;;-2.60;86.30;;;;;;5044925;28;19912;-66
2021/01/11 02:21:59;;;;;;;;;;;-2.60;86.40;;;;;;5044939;28;19909;-66
2021/01/11 02:24:31;;;;;;;;;;;-2.60;86.30;;;;;;5046470;28;20521;-65
2021/01/11 02:27:09;;;;;;;;;;;-2.60;86.40;;;;;;5046025;28;19909;-66
2021/01/11 02:29:37;;;;;;;;;;;-2.50;85.80;;;;;;5046371;28;20393;-68
2021/01/11 02:32:02;;;;;;;;;;;-2.50;85.80;;;;;;5046551;28;19940;-67
2021/01/11 02:34:32;;;;;;;;;;;-2.40;85.30;;;;;;5046613;28;19999;-66
2021/01/11 02:36:59;;;;;;;;;;;-2.40;84.60;;;;;;5045132;28;20463;-66
2021/01/11 02:39:24;;;;;;;;;;;-2.50;84.80;;;;;;5046329;28;19951;-67
2021/01/11 02:41:50;;;;;;;;;;;-2.40;84.40;;;;;;5044848;28;19971;-66
2021/01/11 02:44:15;;;;;;;;;;;-2.40;84.40;;;;;;5046124;28;20324;-66
2021/01/11 02:46:41;;;;;;;;;;;-2.40;84.60;;;;;;5046297;28;20292;-66
2021/01/11 02:49:09;;;;;;;;;;;-2.50;84.90;;;;;;5046070;28;20466;-66
2021/01/11 02:51:41;;;;;;;;;;;-2.50;85.00;;;;;;5046049;28;19912;-67
2021/01/11 02:54:13;;;;;;;;;;;-2.50;85.20;;;;;;5044510;28;20003;-66
2021/01/11 02:56:43;;;;;;;;;;;-2.50;85.60;;;;;;5046096;28;20086;-66
2021/01/11 02:59:15;;;;;;;;;;;-2.50;85.30;;;;;;5044627;28;19908;-67
2021/01/11 03:01:47;;;;;;;;;;;-2.50;85.60;;;;;;5045490;28;19915;-66
2021/01/11 03:04:19;;;;;;;;;;;-2.60;85.50;;;;;;5048261;28;19966;-67
2021/01/11 03:06:52;;;;;;;;;;;-2.60;85.50;;;;;;5048578;28;20447;-67
2021/01/11 03:09:17;;;;;;;;;;;-2.60;85.40;;;;;;5049348;28;19915;-66
2021/01/11 03:11:43;;;;;;;;;;;-2.70;85.30;;;;;;5049539;28;20328;-66
2021/01/11 03:14:08;;;;;;;;;;;-2.60;85.30;;;;;;5049521;28;19905;-67
2021/01/11 03:16:34;;;;;;;;;;;-2.60;85.10;;;;;;5049314;28;20011;-67
2021/01/11 03:18:59;;;;;;;;;;;-2.50;83.90;;;;;;5049758;28;19909;-66
2021/01/11 03:21:25;;;;;;;;;;;-2.40;82.90;;;;;;5049345;28;19909;-67
2021/01/11 03:23:50;;;;;;;;;;;-2.20;81.90;;;;;;5049723;28;19908;-67
2021/01/11 03:26:23;;;;;;;;;;;-2.20;81.80;;;;;;5047870;28;19912;-67
2021/01/11 03:28:48;;;;;;;;;;;-2.20;81.60;;;;;;5049363;28;19991;-67
2021/01/11 03:31:14;;;;;;;;;;;-2.10;81.50;;;;;;5049107;28;20062;-66
2021/01/11 03:33:39;;;;;;;;;;;-2.10;81.60;;;;;;5049285;28;19904;-66
2021/01/11 03:36:05;;;;;;;;;;;-2.10;81.40;;;;;;5047736;28;20678;-67
2021/01/11 03:38:30;;;;;;;;;;;-2.20;81.10;;;;;;5049420;28;19911;-66
2021/01/11 03:41:00;;;;;;;;;;;-2.20;81.50;;;;;;5049218;28;19909;-66
2021/01/11 03:43:25;;;;;;;;;;;-2.20;81.80;;;;;;5048717;28;20711;-66
2021/01/11 03:45:51;;;;;;;;;;;-2.20;82.10;;;;;;5049373;28;20012;-67
2021/01/11 03:48:16;;;;;;;;;;;-2.20;82.90;;;;;;5047443;28;20534;-67
2021/01/11 03:50:42;;;;;;;;;;;-2.30;82.20;;;;;;5049093;28;19909;-67
2021/01/11 03:53:07;;;;;;;;;;;-2.30;82.30;;;;;;5048306;28;20007;-66
2021/01/11 03:55:33;;;;;;;;;;;-2.20;82.60;;;;;;5048788;28;20329;-65
2021/01/11 03:57:58;;;;;;;;;;;-2.20;82.30;;;;;;5048229;28;19909;-66
2021/01/11 04:00:24;;;;;;;;;;;-2.20;82.50;;;;;;5048859;28;20600;-66
2021/01/11 04:02:49;;;;;;;;;;;-2.10;81.50;;;;;;5048506;28;19908;-67
2021/01/11 04:05:15;;;;;;;;;;;-2.10;80.90;;;;;;5048946;28;20338;-66
2021/01/11 04:07:40;;;;;;;;;;;-2.20;81.10;;;;;;5047936;28;20632;-67
2021/01/11 04:10:06;;;;;;;;;;;-2.10;81.80;;;;;;5048690;28;19909;-66
2021/01/11 04:12:32;;;;;;;;;;;-2.20;81.50;;;;;;5048315;28;19978;-66
2021/01/11 04:14:57;;;;;;;;;;;-2.10;81.20;;;;;;5048412;28;20433;-65
2021/01/11 04:17:23;;;;;;;;;;;-2.20;81.40;;;;;;5048415;28;19927;-65
2021/01/11 04:19:48;;;;;;;;;;;-2.10;81.60;;;;;;5046769;28;20023;-66
2021/01/11 04:22:14;;;;;;;;;;;-2.10;81.80;;;;;;5048439;28;19971;-66
2021/01/11 04:24:39;;;;;;;;;;;-2.10;81.60;;;;;;5047027;28;19960;-65
2021/01/11 04:27:05;;;;;;;;;;;-2.10;81.50;;;;;;5047896;28;19908;-67
2021/01/11 04:29:30;;;;;;;;;;;-2.00;81.60;;;;;;5048384;28;19934;-65
2021/01/11 04:31:56;;;;;;;;;;;-2.00;81.50;;;;;;5046254;28;19909;-66
2021/01/11 04:34:21;;;;;;;;;;;-2.00;81.50;;;;;;5037278;28;20476;-67
2021/01/11 04:36:47;;;;;;;;;;;-1.90;80.50;;;;;;5040419;28;20019;-66
2021/01/11 04:39:12;;;;;;;;;;;-1.90;80.30;;;;;;5040104;28;19909;-67
2021/01/11 04:41:40;;;;;;;;;;;-1.90;80.50;;;;;;5023261;28;19908;-66
2021/01/11 04:44:07;;;;;;;;;;;-2.00;80.60;;;;;;5024793;28;19993;-66
2021/01/11 04:46:33;;;;;;;;;;;-2.00;80.70;;;;;;5024604;28;20111;-68
2021/01/11 04:48:58;;;;;;;;;;;-2.00;80.20;;;;;;5024592;28;20331;-67
2021/01/11 04:51:24;;;;;;;;;;;-2.00;80.10;;;;;;5022754;28;19919;-67
2021/01/11 04:53:50;;;;;;;;;;;-1.90;78.90;;;;;;5024172;28;20301;-66
2021/01/11 04:56:16;;;;;;;;;;;-1.70;76.60;;;;;;5022832;28;20138;-67
2021/01/11 04:58:58;;;;;;;;;;;-1.50;75.60;;;;;;5023984;28;19909;-66
2021/01/11 05:01:25;;;;;;;;;;;-1.50;75.30;;;;;;5022197;28;20384;-66
2021/01/11 05:03:51;;;;;;;;;;;-1.40;74.80;;;;;;5023990;28;19908;-67
2021/01/11 05:06:18;;;;;;;;;;;-1.40;74.70;;;;;;5022542;28;20328;-67
2021/01/11 05:08:43;;;;;;;;;;;-1.30;74.10;;;;;;5023678;28;19971;-67
2021/01/11 05:11:09;;;;;;;;;;;-1.30;74.10;;;;;;5023026;28;20339;-67
2021/01/11 05:13:34;;;;;;;;;;;-1.30;74.50;;;;;;5019980;28;19920;-67
2021/01/11 05:16:09;;;;;;;;;;;-1.30;74.50;;;;;;5032784;28;19923;-66
2021/01/11 05:18:34;;;;;;;;;;;-1.30;74.40;;;;;;5043619;28;19965;-65
2021/01/11 05:21:00;;;;;;;;;;;-1.30;74.50;;;;;;5043008;28;19905;-67
2021/01/11 05:23:33;;;;;;;;;;;-1.40;74.60;;;;;;5043491;28;19909;-65
2021/01/11 05:25:58;;;;;;;;;;;-1.40;75.00;;;;;;5042457;28;19928;-67
2021/01/11 05:28:24;;;;;;;;;;;-1.40;75.00;;;;;;5043466;28;20296;-67
2021/01/11 05:30:50;;;;;;;;;;;-1.50;75.10;;;;;;5043415;28;20011;-65
2021/01/11 05:33:23;;;;;;;;;;;-1.50;75.40;;;;;;5043422;28;19932;-66
2021/01/11 05:36:08;;;;;;;;;;;-1.60;75.50;;;;;;5043191;28;19938;-65
2021/01/11 05:38:38;;;;;;;;;;;-1.60;75.50;;;;;;5043221;28;20357;-66
2021/01/11 05:41:13;;;;;;;;;;;-1.70;75.30;;;;;;5043507;28;19905;-67
2021/01/11 05:43:38;;;;;;;;;;;-1.60;75.50;;;;;;5042446;28;20130;-66
2021/01/11 05:46:20;;;;;;;;;;;-1.70;75.20;;;;;;5043155;28;19989;-64
2021/01/11 05:48:55;;;;;;;;;;;-1.70;75.50;;;;;;5043338;28;20427;-65
2021/01/11 05:51:24;;;;;;;;;;;-1.70;75.40;;;;;;5043497;28;19947;-65
2021/01/11 05:53:49;;;;;;;;;;;-1.70;75.50;;;;;;5042117;28;20407;-66
2021/01/11 05:56:15;;;;;;;;;;;-1.70;75.90;;;;;;5041670;28;19951;-65
2021/01/11 05:58:42;;;;;;;;;;;-1.80;75.80;;;;;;5042717;28;19909;-64
2021/01/11 06:01:07;;;;;;;;;;;-1.80;76.20;;;;;;5042930;28;19905;-65
2021/01/11 06:03:33;;;;;;;;;;;-1.90;76.30;;;;;;5042888;28;19909;-66
2021/01/11 06:05:58;;;;;;;;;;;-1.90;76.50;;;;;;5042700;28;19992;-65
2021/01/11 06:08:24;;;;;;;;;;;-1.90;77.00;;;;;;5042930;28;20004;-65
2021/01/11 06:10:50;;;;;;;;;;;-2.00;77.10;;;;;;5042548;28;19909;-66
2021/01/11 06:13:17;;;;;;;;;;;-2.00;77.30;;;;;;5042898;28;19995;-66
2021/01/11 06:15:42;;;;;;;;;;;-2.00;76.90;;;;;;5042119;28;20292;-67
2021/01/11 06:18:12;;;;;;;;;;;-2.10;77.30;;;;;;5041131;28;19908;-65
2021/01/11 06:20:42;;;;;;;;;;;-2.20;77.80;;;;;;5042344;28;20074;-65
2021/01/11 06:23:07;;;;;;;;;;;-2.20;78.10;;;;;;5041561;28;20364;-66
2021/01/11 06:25:33;;;;;;;;;;;-2.30;78.10;;;;;;5042384;28;19940;-65
2021/01/11 06:28:01;;;;;;;;;;;-2.30;78.40;;;;;;5042384;28;19918;-66
2021/01/11 06:30:32;;;;;;;;;;;-2.30;78.50;;;;;;5042524;28;20373;-66
2021/01/11 06:33:08;;;;;;;;;;;-2.30;78.50;;;;;;5042981;28;19905;-65
2021/01/11 06:35:38;;;;;;;;;;;-2.40;78.60;;;;;;5045488;28;19904;-66
2021/01/11 06:38:20;;;;;;;;;;;-2.40;79.00;;;;;;5047158;28;19908;-67
2021/01/11 06:40:46;;;;;;;;;;;-2.40;79.30;;;;;;5049189;28;19927;-67
2021/01/11 06:43:13;;;;;;;;;;;-2.40;79.10;;;;;;5047609;28;19908;-65
2021/01/11 06:45:40;;;;;;;;;;;-2.40;79.40;;;;;;5049309;28;19908;-67
2021/01/11 06:48:07;;;;;;;;;;;-2.40;79.70;;;;;;5049430;28;20003;-67
2021/01/11 06:50:33;;;;;;;;;;;-2.40;80.10;;;;;;5048982;28;20003;-66
2021/01/11 06:52:59;;;;;;;;;;;-2.40;80.00;;;;;;5047486;28;20020;-67
2021/01/11 06:55:25;;;;;;;;;;;-2.40;80.00;;;;;;5048840;28;19952;-66
2021/01/11 06:57:54;;;;;;;;;;;-2.30;79.90;;;;;;5049476;28;19963;-66
2021/01/11 07:00:19;;;;;;;;;;;-2.30;79.70;;;;;;5047082;28;20297;-66
2021/01/11 07:02:45;;;;;;;;;;;-2.20;79.90;;;;;;5047943;28;19913;-67
2021/01/11 07:05:29;;;;;;;;;;;-2.20;80.00;;;;;;5048515;28;19963;-67
2021/01/11 07:08:02;;;;;;;;;;;-2.30;80.10;;;;;;5049009;28;19915;-67
2021/01/11 07:10:27;;;;;;;;;;;-2.20;80.10;;;;;;5048804;28;19915;-66
2021/01/11 07:13:13;;;;;;;;;;;-2.10;80.00;;;;;;5049104;28;19905;-67
2021/01/11 07:15:38;;;;;;;;;;;-2.00;79.50;;;;;;5048870;28;19920;-66
2021/01/11 07:18:05;;;;;;;;;;;-1.60;78.70;;;;;;5049374;28;19912;-66
2021/01/11 07:20:41;;;;;;;;;;;-1.20;77.50;;;;;;5049730;28;19908;-66
2021/01/11 07:23:07;;;;;;;;;;;-0.90;75.90;;;;;;5049788;28;19927;-66
2021/01/11 07:25:33;;;;;;;;;;;-0.60;73.50;;;;;;5048674;28;19970;-66
2021/01/11 07:28:01;;;;;;;;;;;-0.30;72.70;;;;;;5047799;28;20285;-66
2021/01/11 07:30:27;;;;;;;;;;;-0.10;72.40;;;;;;5049588;28;19905;-66
2021/01/11 07:32:52;;;;;;;;;;;0.20;71.80;;;;;;5049480;28;19940;-66
2021/01/11 07:35:18;;;;;;;;;;;0.40;70.50;;;;;;5048827;28;19940;-66
2021/01/11 07:37:43;;;;;;;;;;;0.50;69.80;;;;;;5048015;28;20351;-66
2021/01/11 07:40:09;;;;;;;;;;;0.60;68.80;;;;;;5047298;28;19950;-67
2021/01/11 07:42:35;;;;;;;;;;;0.50;68.30;;;;;;5048528;28;20483;-67
2021/01/11 07:45:11;;;;;;;;;;;0.50;70.30;;;;;;5049201;28;19909;-66
2021/01/11 07:47:40;;;;;;;;;;;0.70;69.20;;;;;;5049004;28;19905;-67
2021/01/11 07:50:06;;;;;;;;;;;0.70;67.30;;;;;;5046858;28;20366;-67
2021/01/11 07:52:32;;;;;;;;;;;0.80;67.20;;;;;;5047808;28;19909;-66
2021/01/11 07:55:03;;;;;;;;;;;0.90;66.70;;;;;;5048704;28;19928;-67
2021/01/11 07:57:29;;;;;;;;;;;1.00;67.30;;;;;;5048442;28;19920;-65
2021/01/11 08:00:10;;;;;;;;;;;1.10;67.20;;;;;;5047099;28;20570;-66
2021/01/11 08:02:35;;;;;;;;;;;1.40;66.40;;;;;;5047033;28;20331;-65
2021/01/11 08:05:01;;;;;;;;;;;1.80;66.40;;;;;;5047830;28;19909;-67
2021/01/11 08:07:33;;;;;;;;;;;2.20;62.70;;;;;;5047928;28;19915;-67
2021/01/11 08:09:59;;;;;;;;;;;2.40;62.90;;;;;;5047575;28;19909;-65
2021/01/11 08:12:29;;;;;;;;;;;2.70;63.50;;;;;;5045933;28;19913;-67
2021/01/11 08:15:01;;;;;;;;;;;2.90;64.00;;;;;;5047618;28;20415;-67
2021/01/11 08:17:27;;;;;;;;;;;3.20;61.00;;;;;;5046551;28;19974;-67
2021/01/11 08:19:54;;;;;;;;;;;3.50;59.40;;;;;;5047607;28;19913;-67
2021/01/11 08:22:20;;;;;;;;;;;3.60;58.60;;;;;;5048412;28;20003;-66
2021/01/11 08:24:52;;;;;;;;;;;3.90;57.00;;;;;;5046147;28;19995;-66
2021/01/11 08:27:18;;;;;;;;;;;4.20;56.80;;;;;;5047723;28;20321;-66
2021/01/11 08:29:44;;;;;;;;;;;4.40;55.40;;;;;;5048130;28;19908;-66
2021/01/11 08:32:10;;;;;;;;;;;4.70;55.50;;;;;;5048487;28;19908;-67
2021/01/11 08:34:36;;;;;;;;;;;4.90;55.40;;;;;;5046972;28;19931;-64
2021/01/11 08:37:41;;;;;;;;;;;5.30;55.10;;;;;;5046441;28;20304;-66
2021/01/11 08:40:17;;;;;;;;;;;5.80;52.80;;;;;;5028170;28;19915;-66
2021/01/11 08:42:43;;;;;;;;;;;6.30;51.80;;;;;;5028324;28;20460;-66
2021/01/11 08:45:27;;;;;;;;;;;6.60;49.60;;;;;;5036938;28;19983;-67
2021/01/11 08:47:59;;;;;;;;;;;6.60;49.70;;;;;;5048267;28;20431;-66
2021/01/11 08:50:25;;;;;;;;;;;6.60;48.70;;;;;;5047830;28;19917;-66
2021/01/11 08:52:50;;;;;;;;;;;6.40;49.20;;;;;;5047817;28;19950;-67
2021/01/11 08:55:18;;;;;;;;;;;6.20;51.00;;;;;;5046093;28;19955;-67
2021/01/11 08:57:59;;;;;;;;;;;6.00;50.50;;;;;;5047620;28;19912;-65
2021/01/11 09:00:25;;;;;;;;;;;5.90;49.80;;;;;;5046668;28;19961;-66
2021/01/11 09:02:51;;;;;;;;;;;5.60;51.10;;;;;;5047828;28;20014;-67
2021/01/11 09:05:17;;;;;;;;;;;5.50;51.10;;;;;;5047290;28;20318;-66
2021/01/11 09:07:43;;;;;;;;;;;5.40;50.20;;;;;;5047697;28;19909;-66
2021/01/11 09:10:33;;;;;;;;;;;5.30;52.40;;;;;;5046912;28;20297;-66
2021/01/11 09:13:19;;;;;;;;;;;5.30;51.30;;;;;;5045356;28;19909;-65
2021/01/11 09:15:44;;;;;;;;;;;5.10;51.10;;;;;;5045863;28;20296;-66
2021/01/11 09:18:10;;;;;;;;;;;5.00;52.90;;;;;;5046921;28;19908;-65
2021/01/11 09:20:43;;;;;;;;;;;5.10;53.50;;;;;;5046862;28;20026;-67
2021/01/11 09:25:22;;;;;;;30.80;16.70;;;5.00;50.70;;;;;;5102756;27;20524;-68
2021/01/11 09:27:48;;;;;;;;;;;5.20;50.70;;;;;;5100053;28;20043;-68
2021/01/11 09:30:15;;;;;;;29.42;13.88;;;5.10;51.60;;;;;;5103712;28;19908;-69
2021/01/11 09:32:44;;;;;;;31.08;17.33;;;5.00;52.30;;;;;;5099397;28;20039;-68
2021/01/11 09:35:11;;;;;;;30.50;14.95;;;5.00;52.60;;;;;;5101494;28;20115;-68
2021/01/11 09:37:37;;;;;;;30.85;15.02;;;5.00;51.30;;;;;;5099170;28;20480;-68
2021/01/11 09:40:03;;;;;;;;;;;4.90;50.50;;;;;;5082930;28;20046;-68
2021/01/11 09:42:28;;;;;;;22.73;11.68;;;4.70;49.00;;;;;;5078310;28;19985;-69
2021/01/11 09:44:54;;;;;;;;;;;4.60;50.40;;;;;;5080346;28;20523;-68
2021/01/11 09:47:19;;;;;;;15.57;8.88;;;4.50;50.80;;;;;;5078481;28;19995;-68
2021/01/11 09:49:45;;;;;;;;;;;4.50;51.30;;;;;;5080284;28;20059;-67
2021/01/11 09:52:11;;;;;;;17.45;9.27;;;4.40;51.30;;;;;;5080504;28;19916;-67
2021/01/11 09:54:36;;;;;;;22.83;10.43;;;4.40;51.80;;;;;;5078832;28;20033;-66
2021/01/11 09:57:02;;;;;;;;;;;4.30;51.90;;;;;;5081020;28;20525;-69
2021/01/11 09:59:28;;;;;;;19.90;10.60;;;4.30;50.50;;;;;;5095422;28;20440;-68
2021/01/11 10:01:54;;;;;;;64.68;32.38;;;4.20;51.40;;;;;;5079043;28;20039;-67
2021/01/11 10:04:20;;;;;;;145.48;83.80;;;4.20;51.80;;;;;;5078371;28;20047;-67
2021/01/11 10:06:54;;;;;;;31.70;16.73;;;4.20;52.60;;;;;;5078931;28;20038;-66
2021/01/11 10:09:25;;;;;;;21.00;11.48;;;4.20;51.80;;;;;;5079566;28;20405;-68
2021/01/11 10:11:58;;;;;;;19.65;10.50;;;4.20;51.70;;;;;;5079947;28;20051;-68
2021/01/11 10:14:25;;;;;;;17.08;9.25;;;4.10;51.90;;;;;;5080149;28;20034;-68
2021/01/11 10:16:50;;;;;;;21.75;11.40;;;4.00;52.30;;;;;;5079356;28;20029;-68
2021/01/11 10:19:17;;;;;;;;;;;4.10;52.60;;;;;;5078764;28;20101;-68
2021/01/11 10:21:43;;;;;;;24.98;13.75;;;4.10;52.80;;;;;;5078710;28;19908;-68
2021/01/11 10:24:09;;;;;;;;;;;4.10;52.20;;;;;;5079142;28;20091;-68
2021/01/11 10:26:35;;;;;;;20.92;11.27;;;4.10;52.40;;;;;;5078680;28;19912;-67
2021/01/11 10:29:01;;;;;;;;;;;4.10;52.40;;;;;;5079750;28;20033;-67
2021/01/11 10:31:27;;;;;;;20.25;11.25;;;4.00;52.80;;;;;;5079540;28;19908;-67
2021/01/11 10:33:53;;;;;;;;;;;4.00;53.00;;;;;;5080521;28;20043;-68
2021/01/11 10:36:19;;;;;;;27.23;11.70;;;3.90;53.30;;;;;;5077263;28;20364;-66
2021/01/11 10:38:45;;;;;;;27.48;12.50;;;3.90;52.80;;;;;;5088955;28;20050;-67
2021/01/11 10:41:20;;;;;;;46.40;22.48;;;3.90;52.70;;;;;;5071161;28;20058;-68
2021/01/11 10:43:48;;;;;;;26.65;14.73;;;3.90;53.80;;;;;;5088511;28;20031;-68
2021/01/11 10:46:17;;;;;;;22.02;12.02;;;3.90;53.50;;;;;;5089111;28;20035;-68
2021/01/11 10:48:44;;;;;;;21.45;10.48;;;3.90;53.30;;;;;;5089101;28;20016;-68
2021/01/11 10:51:11;;;;;;;27.60;11.75;;;3.90;53.60;;;;;;5088596;28;20024;-67
2021/01/11 10:53:40;;;;;;;25.67;12.50;;;3.90;52.70;;;;;;5088297;28;20024;-68
2021/01/11 10:56:07;;;;;;;30.35;15.13;;;3.80;53.20;;;;;;5088383;28;20067;-69
2021/01/11 10:58:34;;;;;;;35.35;19.25;;;3.80;53.30;;;;;;5088940;28;20031;-69
2021/01/11 11:01:00;;;;;;;26.20;11.77;;;3.80;54.20;;;;;;5088269;28;20480;-69
2021/01/11 11:03:26;;;;;;;24.17;13.50;;;3.80;54.20;;;;;;5088575;28;20043;-69
2021/01/11 11:05:52;;;;;;;;;;;3.90;54.00;;;;;;5088956;28;20453;-68
2021/01/11 11:08:18;;;;;;;26.45;15.55;;;3.80;53.70;;;;;;5088082;28;19914;-67
2021/01/11 11:10:44;;;;;;;;;;;3.80;54.20;;;;;;5088845;28;20031;-68
2021/01/11 11:13:10;;;;;;;54.40;30.35;;;3.80;53.40;;;;;;5088688;28;19930;-68
2021/01/11 11:15:35;;;;;;;75.90;38.40;;;3.80;54.40;;;;;;5088100;28;20106;-68
2021/01/11 11:18:01;;;;;;;52.03;29.50;;;3.90;55.90;;;;;;5088268;28;20117;-68
2021/01/11 11:20:26;;;;;;;;;;;3.90;56.20;;;;;;5088816;28;20496;-67
2021/01/11 11:22:53;;;;;;;49.95;30.75;;;3.80;56.50;;;;;;5087861;28;20025;-67
2021/01/11 11:25:20;;;;;;;38.40;20.35;;;3.80;56.90;;;;;;5088065;28;20101;-67
2021/01/11 11:27:49;;;;;;;46.20;26.48;;;3.80;56.80;;;;;;5087713;28;20016;-68
2021/01/11 11:30:16;;;;;;;29.92;15.57;;;3.80;56.50;;;;;;5088203;28;20089;-68
2021/01/11 11:32:46;;;;;;;23.17;12.65;;;3.80;56.60;;;;;;5087959;28;20481;-68
2021/01/11 11:35:12;;;;;;;22.45;12.48;;;3.80;56.30;;;;;;5088070;28;20043;-68
2021/01/11 11:37:38;;;;;;;27.67;14.32;;;3.80;56.30;;;;;;5087312;28;20561;-68
2021/01/11 11:40:04;;;;;;;;;;;3.70;57.00;;;;;;5088080;28;20036;-67
2021/01/11 11:42:33;;;;;;;27.15;13.32;;;3.80;57.40;;;;;;5088252;28;19904;-68
2021/01/11 11:44:59;;;;;;;31.05;13.77;;;3.70;57.30;;;;;;5086306;28;20047;-68
2021/01/11 11:47:25;;;;;;;;;;;3.70;56.70;;;;;;5086884;28;20043;-68
2021/01/11 11:49:50;;;;;;;39.28;20.27;;;3.70;56.70;;;;;;5087735;28;19908;-68
2021/01/11 11:52:16;;;;;;;;;;;3.70;57.80;;;;;;5086702;28;20404;-68
2021/01/11 11:54:41;;;;;;;42.42;21.27;;;3.60;57.60;;;;;;5087915;28;19961;-67
2021/01/11 11:57:07;;;;;;;;;;;3.70;57.70;;;;;;5088043;28;20435;-68
2021/01/11 11:59:32;;;;;;;75.10;41.05;;;3.70;57.90;;;;;;5087545;28;20007;-68
2021/01/11 12:01:58;;;;;;;;;;;3.70;57.50;;;;;;5087890;28;20107;-68
2021/01/11 12:04:24;;;;;;;46.22;29.23;;;3.60;57.10;;;;;;5087505;28;20265;-68
2021/01/11 12:06:49;;;;;;;;;;;3.60;57.10;;;;;;5086655;28;20024;-68
2021/01/11 12:09:15;;;;;;;79.15;54.58;;;3.50;57.00;;;;;;5086913;28;20489;-68
2021/01/11 12:11:41;;;;;;;;;;;3.50;57.20;;;;;;5087420;28;20451;-68
2021/01/11 12:14:07;;;;;;;55.58;29.70;;;3.50;57.00;;;;;;5087405;28;19908;-68
2021/01/11 12:16:32;;;;;;;;;;;3.60;57.30;;;;;;5087750;28;20020;-68
2021/01/11 12:18:58;;;;;;;56.58;34.50;;;3.60;57.60;;;;;;5086835;28;19912;-68
2021/01/11 12:21:27;;;;;;;;;;;3.60;57.70;;;;;;5086786;28;20404;-68
2021/01/11 12:23:53;;;;;;;32.42;19.50;;;3.50;58.20;;;;;;5086646;28;19924;-68
2021/01/11 12:26:18;;;;;;;;;;;3.50;58.00;;;;;;5086373;28;20515;-68
2021/01/11 12:28:44;;;;;;;19.42;10.25;;;3.50;58.10;;;;;;5087079;28;19955;-68
2021/01/11 12:31:09;;;;;;;;;;;3.50;58.50;;;;;;5087250;28;20246;-68
2021/01/11 12:33:35;;;;;;;22.38;12.70;;;3.60;58.80;;;;;;5086964;28;19977;-68
2021/01/11 12:36:00;;;;;;;;;;;3.50;58.80;;;;;;5087084;28;20511;-68
2021/01/11 12:38:26;;;;;;;21.27;11.20;;;3.50;59.80;;;;;;5086775;28;19907;-68
2021/01/11 12:40:51;;;;;;;;;;;3.50;59.50;;;;;;5087019;28;20104;-68
2021/01/11 12:43:17;;;;;;;18.73;10.20;;;3.50;59.40;;;;;;5086859;28;20006;-68
2021/01/11 12:45:42;;;;;;;;;;;3.50;59.80;;;;;;5086959;28;20020;-67
2021/01/11 12:48:10;;;;;;;22.40;12.65;;;3.50;59.50;;;;;;5086999;28;19934;-68
2021/01/11 12:50:36;;;;;;;23.90;12.20;;;3.50;59.20;;;;;;5086261;28;20036;-68
2021/01/11 12:53:01;;;;;;;;;;;3.50;59.60;;;;;;5087150;28;20028;-68
2021/01/11 12:55:30;;;;;;;20.30;11.30;;;3.50;59.30;;;;;;5086535;28;19958;-68
2021/01/11 12:57:56;;;;;;;20.55;12.23;;;3.40;59.10;;;;;;5086641;28;20034;-68
2021/01/11 13:00:22;;;;;;;;;;;3.40;59.40;;;;;;5086011;28;20107;-68
2021/01/11 13:02:48;;;;;;;25.92;12.15;;;3.40;59.30;;;;;;5085314;28;20391;-68
2021/01/11 13:05:14;;;;;;;;;;;3.40;59.50;;;;;;5086869;28;20040;-67
2021/01/11 13:07:40;;;;;;;23.00;12.10;;;3.40;59.30;;;;;;5086098;28;19904;-68
2021/01/11 13:10:06;;;;;;;;;;;3.40;59.50;;;;;;5086879;28;20034;-68
2021/01/11 13:12:32;;;;;;;21.02;11.77;;;3.30;58.70;;;;;;5086552;28;19908;-66
2021/01/11 13:14:58;;;;;;;;;;;3.30;58.70;;;;;;5086518;28;20032;-67
2021/01/11 13:17:24;;;;;;;25.73;13.37;;;3.30;59.10;;;;;;5086343;28;19908;-67
2021/01/11 13:19:49;;;;;;;;;;;3.30;58.60;;;;;;5086391;28;20050;-67
2021/01/11 13:22:15;;;;;;;21.80;10.80;;;3.30;58.40;;;;;;5084561;28;19955;-68
2021/01/11 13:24:41;;;;;;;;;;;3.20;58.50;;;;;;5086437;28;20099;-67
2021/01/11 13:27:06;;;;;;;20.92;11.43;;;3.20;58.30;;;;;;5086274;28;20479;-66
2021/01/11 13:29:33;;;;;;;;;;;3.20;58.70;;;;;;5086524;28;20482;-67
2021/01/11 13:31:59;;;;;;;26.00;13.73;;;3.20;58.80;;;;;;5085885;28;19983;-66
2021/01/11 13:34:24;;;;;;;;;;;3.20;58.80;;;;;;5086612;28;20476;-67
2021/01/11 13:36:50;;;;;;;21.85;11.65;;;3.20;59.10;;;;;;5085420;28;19908;-68
2021/01/11 13:39:16;;;;;;;;;;;3.10;59.40;;;;;;5086664;28;20032;-67
2021/01/11 13:41:45;;;;;;;21.50;11.23;;;3.10;59.30;;;;;;5086172;28;19918;-66
2021/01/11 13:44:13;;;;;;;29.63;11.90;;;3.10;59.20;;;;;;5085749;28;20079;-66
2021/01/11 13:46:44;;;;;;;22.55;12.02;;;3.10;59.30;;;;;;5086196;28;20453;-65
2021/01/11 13:49:10;;;;;;;25.52;13.30;;;3.10;60.00;;;;;;5084441;28;20458;-65
2021/01/11 13:51:36;;;;;;;;;;;3.10;59.70;;;;;;5085832;28;20024;-65
2021/01/11 13:54:01;;;;;;;28.17;15.23;;;3.10;59.70;;;;;;5086161;28;19951;-66
2021/01/11 13:56:28;;;;;;;;;;;3.00;59.90;;;;;;5085163;28;20506;-65
2021/01/11 13:58:55;;;;;;;24.60;13.82;;;3.00;60.10;;;;;;5085875;28;19911;-66
2021/01/11 14:01:25;;;;;;;25.13;15.43;;;3.00;60.50;;;;;;5085659;28;20191;-66